Time;durP1;ratioP1;P1;durP2;ratioP2;P2;SDS_P1;SDS_P2;PMS_P1;PMS_P2;Temp;Humidity;BMP_temperature;BMP_pressure;BME280_temperature;BME280_humidity;BME280_pressure;Samples;Min_cycle;Max_cycle;Signal;HPM_P1;HPM_P2
2024/04/14 00:00:43;;;;;;;3.40;1.80;;;16.20;91.40;;;;;;5453044;26;19995;-79
2024/04/14 00:03:09;;;;;;;2.90;1.77;;;16.20;91.40;;;;;;5421732;26;19999;-79
2024/04/14 00:05:35;;;;;;;3.25;1.70;;;16.20;91.70;;;;;;5452867;26;19999;-79
2024/04/14 00:08:00;;;;;;;3.78;1.98;;;16.20;91.40;;;;;;5452925;26;20100;-79
2024/04/14 00:10:26;;;;;;;3.42;1.80;;;16.20;91.40;;;;;;5420730;26;20451;-79
2024/04/14 00:12:51;;;;;;;2.97;1.60;;;16.20;91.40;;;;;;5452768;26;19991;-79
2024/04/14 00:15:18;;;;;;;3.38;1.80;;;16.20;91.40;;;;;;5452258;26;19995;-79
2024/04/14 00:17:44;;;;;;;3.05;1.58;;;16.20;91.40;;;;;;5452501;26;20035;-80
2024/04/14 00:20:11;;;;;;;2.92;1.60;;;16.20;91.40;;;;;;5452722;26;20370;-80
2024/04/14 00:22:37;;;;;;;2.80;1.67;;;16.10;91.40;;;;;;5453540;26;19995;-80
2024/04/14 00:25:02;;;;;;;3.13;1.58;;;16.20;91.40;;;;;;5453157;26;20009;-80
2024/04/14 00:27:28;;;;;;;2.55;1.60;;;16.20;91.40;;;;;;5452674;26;20402;-79
2024/04/14 00:29:53;;;;;;;3.67;1.65;;;16.20;91.40;;;;;;5420497;26;20015;-80
2024/04/14 00:32:19;;;;;;;2.95;1.50;;;16.20;91.50;;;;;;5421405;26;20076;-80
2024/04/14 00:34:45;;;;;;;2.25;1.50;;;16.20;91.40;;;;;;5453147;26;20006;-80
2024/04/14 00:37:10;;;;;;;2.47;1.40;;;16.20;91.40;;;;;;5453040;26;20320;-80
2024/04/14 00:39:36;;;;;;;3.40;1.50;;;16.10;91.40;;;;;;5420604;26;20463;-78
2024/04/14 00:42:01;;;;;;;2.50;1.52;;;16.20;91.40;;;;;;5452614;26;20399;-80
2024/04/14 00:44:27;;;;;;;3.03;1.58;;;16.20;91.40;;;;;;5452606;26;20079;-80
2024/04/14 00:46:54;;;;;;;3.10;1.73;;;16.30;91.50;;;;;;5420899;26;20007;-80
2024/04/14 00:49:21;;;;;;;2.90;1.80;;;16.20;91.40;;;;;;5452691;26;19995;-79
2024/04/14 00:51:47;;;;;;;3.40;1.75;;;16.30;91.50;;;;;;5452162;26;19995;-80
2024/04/14 00:54:17;;;;;;;3.55;1.70;;;16.20;91.50;;;;;;5452580;26;20338;-80
2024/04/14 00:56:44;;;;;;;2.95;1.58;;;16.20;91.50;;;;;;5452401;26;20619;-80
2024/04/14 00:59:10;;;;;;;2.45;1.48;;;16.20;91.50;;;;;;5452531;26;19995;-80
2024/04/14 01:01:36;;;;;;;2.75;1.52;;;16.20;91.50;;;;;;5452488;26;20092;-80
2024/04/14 01:04:02;;;;;;;2.30;1.40;;;16.20;91.50;;;;;;5420655;26;19999;-79
2024/04/14 01:06:27;;;;;;;2.55;1.48;;;16.20;91.50;;;;;;5420758;26;20007;-80
2024/04/14 01:08:53;;;;;;;3.13;1.52;;;16.20;91.50;;;;;;5452435;26;20018;-80
2024/04/14 01:11:19;;;;;;;1.67;1.30;;;16.10;91.50;;;;;;5452297;26;20006;-80
2024/04/14 01:13:48;;;;;;;2.33;1.58;;;16.20;91.50;;;;;;5420304;26;19998;-80
2024/04/14 01:16:13;;;;;;;2.63;1.67;;;16.20;91.50;;;;;;5451510;26;20439;-79
2024/04/14 01:18:39;;;;;;;3.00;1.55;;;16.20;91.50;;;;;;5451931;26;20005;-80
2024/04/14 01:21:05;;;;;;;2.40;1.50;;;16.10;91.50;;;;;;5420159;26;20067;-81
2024/04/14 01:23:31;;;;;;;3.33;1.85;;;16.10;91.50;;;;;;5420225;26;20015;-80
2024/04/14 01:25:57;;;;;;;2.45;1.60;;;16.20;91.50;;;;;;5420266;26;20098;-80
2024/04/14 01:28:22;;;;;;;2.95;1.50;;;16.20;91.50;;;;;;5420034;26;19999;-80
2024/04/14 01:30:48;;;;;;;1.92;1.38;;;16.20;91.50;;;;;;5453368;26;20077;-80
2024/04/14 01:33:15;;;;;;;3.25;1.60;;;16.30;91.50;;;;;;5455479;26;20013;-81
2024/04/14 01:35:41;;;;;;;2.38;1.60;;;16.20;91.50;;;;;;5423733;26;20727;-81
2024/04/14 01:38:07;;;;;;;2.08;1.30;;;16.20;91.50;;;;;;5423762;26;19999;-81
2024/04/14 01:40:32;;;;;;;2.00;1.27;;;16.20;91.50;;;;;;5454877;26;20002;-81
2024/04/14 01:42:58;;;;;;;2.75;1.35;;;16.10;91.50;;;;;;5455369;26;20040;-80
2024/04/14 01:45:23;;;;;;;2.92;1.55;;;16.20;91.50;;;;;;5423566;26;20668;-81
2024/04/14 01:47:49;;;;;;;2.10;1.50;;;16.20;91.50;;;;;;5454968;26;20467;-82
2024/04/14 01:50:15;;;;;;;2.70;1.70;;;16.10;91.50;;;;;;5423006;26;20019;-82
2024/04/14 01:52:41;;;;;;;2.13;1.40;;;16.20;91.50;;;;;;5454984;26;19991;-82
2024/04/14 01:55:07;;;;;;;2.75;1.60;;;16.10;91.50;;;;;;5454959;26;20010;-81
2024/04/14 01:57:33;;;;;;;1.95;1.40;;;16.20;91.50;;;;;;5455148;26;20005;-82
2024/04/14 01:59:59;;;;;;;2.85;1.65;;;16.20;91.50;;;;;;5454889;26;20006;-81
2024/04/14 02:02:24;;;;;;;1.95;1.27;;;16.20;91.50;;;;;;5423225;26;19999;-81
2024/04/14 02:04:50;;;;;;;2.47;1.50;;;16.10;91.50;;;;;;5454991;26;19994;-81
2024/04/14 02:07:15;;;;;;;2.90;1.70;;;16.20;91.50;;;;;;5454881;26;20447;-81
2024/04/14 02:09:41;;;;;;;2.63;1.50;;;16.20;91.50;;;;;;5454582;26;19994;-81
2024/04/14 02:12:07;;;;;;;2.72;1.52;;;16.20;91.50;;;;;;5423170;26;20493;-81
2024/04/14 02:14:32;;;;;;;2.67;1.52;;;16.20;91.50;;;;;;5454226;26;20003;-81
2024/04/14 02:16:58;;;;;;;2.80;1.60;;;16.20;91.50;;;;;;5454784;26;20013;-80
2024/04/14 02:19:23;;;;;;;2.40;1.45;;;16.20;91.50;;;;;;5454336;26;19999;-81
2024/04/14 02:21:49;;;;;;;2.88;1.50;;;16.20;91.50;;;;;;5454434;26;19995;-81
2024/04/14 02:24:14;;;;;;;3.92;1.80;;;16.20;91.50;;;;;;5453862;26;19995;-81
2024/04/14 02:26:40;;;;;;;2.97;1.50;;;16.20;91.50;;;;;;5454532;26;19994;-80
2024/04/14 02:29:07;;;;;;;2.42;1.50;;;16.20;91.50;;;;;;5422254;26;20096;-81
2024/04/14 02:31:32;;;;;;;2.20;1.40;;;16.20;91.50;;;;;;5421798;26;20009;-81
2024/04/14 02:33:58;;;;;;;3.28;1.63;;;16.20;91.50;;;;;;5453899;26;19991;-79
2024/04/14 02:36:27;;;;;;;2.40;1.38;;;16.20;91.50;;;;;;5422128;26;20005;-81
2024/04/14 02:38:52;;;;;;;2.85;1.60;;;16.20;91.50;;;;;;5454147;26;20006;-82
2024/04/14 02:41:18;;;;;;;2.45;1.45;;;16.20;91.60;;;;;;5453442;26;19990;-80
2024/04/14 02:43:44;;;;;;;2.45;1.50;;;16.10;91.50;;;;;;5453965;26;19995;-79
2024/04/14 02:46:10;;;;;;;2.33;1.50;;;16.20;91.50;;;;;;5454263;26;20516;-79
2024/04/14 02:48:36;;;;;;;2.03;1.38;;;16.10;91.50;;;;;;5454371;26;19995;-79
2024/04/14 02:51:02;;;;;;;2.35;1.50;;;16.20;91.60;;;;;;5454104;26;20006;-80
2024/04/14 02:53:29;;;;;;;2.80;1.60;;;16.20;91.60;;;;;;5454608;26;20006;-79
2024/04/14 02:55:54;;;;;;;2.15;1.48;;;16.20;91.60;;;;;;5454159;26;19999;-80
2024/04/14 02:58:20;;;;;;;2.28;1.38;;;16.20;91.60;;;;;;5454596;26;19999;-81
2024/04/14 03:00:45;;;;;;;2.22;1.40;;;16.20;91.60;;;;;;5422122;26;20003;-81
2024/04/14 03:03:11;;;;;;;2.42;1.45;;;16.20;91.60;;;;;;5454177;26;19995;-82
2024/04/14 03:05:36;;;;;;;2.88;1.55;;;16.10;91.60;;;;;;5422416;26;20467;-81
2024/04/14 03:08:05;;;;;;;2.95;1.70;;;16.20;91.60;;;;;;5422287;26;20894;-82
2024/04/14 03:10:31;;;;;;;3.50;1.60;;;16.10;91.60;;;;;;5421782;26;20001;-81
2024/04/14 03:12:57;;;;;;;2.33;1.40;;;16.10;91.60;;;;;;5453994;26;20007;-81
2024/04/14 03:15:22;;;;;;;2.30;1.30;;;16.20;91.60;;;;;;5453622;26;19995;-80
2024/04/14 03:17:48;;;;;;;3.38;1.40;;;16.20;91.60;;;;;;5422270;26;19995;-81
2024/04/14 03:20:13;;;;;;;3.33;1.60;;;16.20;91.60;;;;;;5421969;26;19998;-82
2024/04/14 03:22:39;;;;;;;2.10;1.40;;;16.10;91.60;;;;;;5453956;26;19995;-81
2024/04/14 03:25:05;;;;;;;2.38;1.50;;;16.10;91.60;;;;;;5454235;26;20470;-81
2024/04/14 03:27:31;;;;;;;2.63;1.50;;;16.10;91.60;;;;;;5453908;26;20075;-81
2024/04/14 03:29:56;;;;;;;2.63;1.50;;;16.20;91.60;;;;;;5453445;26;20003;-82
2024/04/14 03:32:22;;;;;;;2.28;1.40;;;16.20;91.60;;;;;;5453757;26;20010;-81
2024/04/14 03:34:51;;;;;;;2.30;1.52;;;16.20;91.60;;;;;;5421715;26;20335;-80
2024/04/14 03:37:17;;;;;;;2.00;1.45;;;16.20;91.60;;;;;;5421897;26;20373;-79
2024/04/14 03:39:42;;;;;;;2.67;1.50;;;16.20;91.60;;;;;;5421595;26;20009;-82
2024/04/14 03:42:08;;;;;;;2.75;1.60;;;16.20;91.60;;;;;;5453863;26;19999;-81
2024/04/14 03:44:33;;;;;;;2.00;1.30;;;16.20;91.60;;;;;;5421920;26;20005;-81
2024/04/14 03:46:59;;;;;;;2.08;1.40;;;16.20;91.60;;;;;;5453519;26;20002;-81
2024/04/14 03:49:24;;;;;;;2.67;1.40;;;16.10;91.60;;;;;;5453239;26;20003;-81
2024/04/14 03:51:50;;;;;;;2.38;1.45;;;16.10;91.60;;;;;;5453835;26;19995;-80
2024/04/14 03:54:16;;;;;;;2.63;1.42;;;16.20;91.90;;;;;;5452651;26;20005;-82
2024/04/14 03:56:41;;;;;;;2.42;1.50;;;16.10;91.60;;;;;;5453332;26;19994;-80
2024/04/14 03:59:07;;;;;;;2.25;1.38;;;16.10;91.60;;;;;;5453453;26;19995;-82
2024/04/14 04:01:33;;;;;;;2.60;1.48;;;16.10;91.60;;;;;;5452946;26;20002;-80
2024/04/14 04:03:59;;;;;;;2.65;1.35;;;16.20;91.60;;;;;;5453473;26;20006;-79
2024/04/14 04:06:24;;;;;;;2.08;1.30;;;16.10;91.60;;;;;;5453350;26;20001;-79
2024/04/14 04:08:50;;;;;;;2.80;1.48;;;16.20;91.60;;;;;;5421578;26;19995;-79
2024/04/14 04:11:15;;;;;;;2.75;1.50;;;16.10;91.60;;;;;;5453005;26;19999;-82
2024/04/14 04:13:41;;;;;;;1.85;1.15;;;16.10;91.60;;;;;;5421518;26;19999;-82
2024/04/14 04:16:07;;;;;;;1.92;1.30;;;16.10;91.60;;;;;;5420769;26;19991;-81
2024/04/14 04:18:33;;;;;;;2.17;1.35;;;16.20;91.60;;;;;;5453370;26;20029;-81
2024/04/14 04:21:01;;;;;;;1.88;1.40;;;16.10;91.60;;;;;;5452885;26;20003;-81
2024/04/14 04:23:27;;;;;;;2.17;1.30;;;16.20;91.70;;;;;;5421280;26;20013;-79
2024/04/14 04:25:55;;;;;;;1.90;1.30;;;16.10;91.60;;;;;;5421349;26;20003;-81
2024/04/14 04:28:24;;;;;;;2.75;1.40;;;16.10;91.60;;;;;;5452986;26;20006;-80
2024/04/14 04:30:52;;;;;;;1.83;1.27;;;16.10;91.60;;;;;;5452377;26;20014;-79
2024/04/14 04:33:19;;;;;;;3.20;1.63;;;16.10;91.60;;;;;;5421088;26;20010;-80
2024/04/14 04:35:54;;;;;;;2.70;1.50;;;16.20;91.70;;;;;;5421045;26;20002;-79
2024/04/14 04:38:22;;;;;;;2.30;1.35;;;16.10;91.60;;;;;;5421215;26;20000;-79
2024/04/14 04:40:47;;;;;;;2.13;1.40;;;16.10;91.60;;;;;;5452579;26;20035;-82
2024/04/14 04:43:13;;;;;;;4.07;1.80;;;16.10;91.60;;;;;;5452728;26;20749;-81
2024/04/14 04:45:39;;;;;;;2.50;1.40;;;16.10;91.60;;;;;;5453149;26;19998;-79
2024/04/14 04:48:05;;;;;;;2.25;1.30;;;16.20;91.90;;;;;;5452668;26;20006;-78
2024/04/14 04:50:30;;;;;;;2.53;1.45;;;16.10;91.60;;;;;;5452757;26;20031;-81
2024/04/14 04:52:56;;;;;;;2.05;1.33;;;16.20;91.70;;;;;;5420881;26;19999;-80
2024/04/14 04:55:21;;;;;;;2.58;1.60;;;16.20;91.70;;;;;;5452857;26;20002;-80
2024/04/14 04:57:47;;;;;;;2.90;1.50;;;16.10;91.90;;;;;;5420683;26;19999;-81
2024/04/14 05:00:13;;;;;;;2.75;1.30;;;16.10;91.60;;;;;;5420407;26;20006;-80
2024/04/14 05:02:38;;;;;;;3.67;1.60;;;16.10;91.60;;;;;;5420630;26;19998;-81
2024/04/14 05:05:04;;;;;;;2.13;1.30;;;16.10;91.60;;;;;;5418809;26;19995;-81
2024/04/14 05:07:32;;;;;;;2.10;1.35;;;16.10;91.60;;;;;;5420616;26;20395;-82
2024/04/14 05:09:58;;;;;;;2.75;1.40;;;16.20;91.60;;;;;;5419842;26;20010;-81
2024/04/14 05:12:23;;;;;;;2.00;1.40;;;16.10;91.60;;;;;;5420579;26;20335;-82
2024/04/14 05:14:49;;;;;;;2.00;1.30;;;16.20;91.70;;;;;;5452057;26;20848;-82
2024/04/14 05:17:15;;;;;;;2.67;1.40;;;16.10;91.60;;;;;;5452207;26;19995;-82
2024/04/14 05:19:40;;;;;;;2.22;1.20;;;16.20;91.70;;;;;;5451977;26;19994;-81
2024/04/14 05:22:06;;;;;;;1.30;1.00;;;16.10;91.60;;;;;;5451883;26;19995;-82
2024/04/14 05:24:31;;;;;;;2.67;1.30;;;16.10;91.60;;;;;;5451792;26;20072;-81
2024/04/14 05:26:57;;;;;;;1.83;1.20;;;16.10;91.60;;;;;;5451857;26;20006;-81
2024/04/14 05:29:25;;;;;;;1.77;1.10;;;16.10;91.60;;;;;;5451502;26;20334;-81
2024/04/14 05:31:51;;;;;;;2.55;1.20;;;16.20;91.70;;;;;;5451479;26;19995;-82
2024/04/14 05:34:17;;;;;;;1.70;1.20;;;16.10;91.70;;;;;;5451939;26;20010;-81
2024/04/14 05:36:44;;;;;;;2.80;1.38;;;16.10;91.60;;;;;;5451881;26;20007;-81
2024/04/14 05:39:09;;;;;;;2.70;1.52;;;16.20;91.70;;;;;;5451969;26;20123;-81
2024/04/14 05:41:35;;;;;;;2.10;1.20;;;16.20;91.70;;;;;;5419902;26;19995;-82
2024/04/14 05:44:01;;;;;;;1.67;1.08;;;16.20;91.70;;;;;;5452006;26;20343;-81
2024/04/14 05:46:26;;;;;;;1.77;1.30;;;16.10;91.60;;;;;;5451723;26;20017;-82
2024/04/14 05:48:52;;;;;;;2.42;1.38;;;16.20;91.70;;;;;;5451635;26;20342;-81
2024/04/14 05:51:19;;;;;;;2.33;1.38;;;16.10;91.70;;;;;;5451272;26;20002;-82
2024/04/14 05:53:50;;;;;;;1.55;1.23;;;16.00;91.70;;;;;;5419458;26;19999;-82
2024/04/14 05:56:16;;;;;;;1.77;1.20;;;16.10;91.70;;;;;;5419453;26;19995;-81
2024/04/14 05:58:42;;;;;;;1.63;1.30;;;16.10;91.80;;;;;;5451489;26;19999;-81
2024/04/14 06:01:08;;;;;;;1.90;1.20;;;16.10;91.70;;;;;;5450637;26;19994;-81
2024/04/14 06:03:33;;;;;;;1.90;1.40;;;16.10;91.70;;;;;;5451309;26;20324;-82
2024/04/14 06:06:00;;;;;;;1.95;1.20;;;16.10;91.80;;;;;;5419639;26;20013;-82
2024/04/14 06:08:26;;;;;;;2.05;1.25;;;16.20;91.80;;;;;;5419662;26;19995;-80
2024/04/14 06:10:51;;;;;;;2.50;1.40;;;16.10;91.70;;;;;;5419089;26;20009;-82
2024/04/14 06:13:17;;;;;;;2.17;1.27;;;16.20;91.70;;;;;;5451391;26;20006;-81
2024/04/14 06:15:46;;;;;;;1.95;1.17;;;16.10;91.70;;;;;;5450820;26;19998;-82
2024/04/14 06:18:11;;;;;;;2.28;1.30;;;16.20;91.70;;;;;;5423113;26;19995;-81
2024/04/14 06:20:40;;;;;;;3.28;1.40;;;16.20;91.70;;;;;;5454323;26;20013;-81
2024/04/14 06:23:06;;;;;;;1.90;1.10;;;16.20;91.70;;;;;;5454755;26;20368;-81
2024/04/14 06:25:32;;;;;;;1.88;1.23;;;16.20;91.60;;;;;;5454764;26;19999;-81
2024/04/14 06:27:57;;;;;;;2.40;1.20;;;16.10;91.60;;;;;;5454628;26;19994;-84
2024/04/14 06:30:23;;;;;;;2.22;1.10;;;16.20;91.60;;;;;;5420310;26;20409;-82
2024/04/14 06:32:50;;;;;;;2.30;1.20;;;16.20;91.60;;;;;;5420795;26;19995;-82
2024/04/14 06:35:16;;;;;;;1.58;1.15;;;16.20;91.60;;;;;;5454105;26;20027;-81
2024/04/14 06:37:41;;;;;;;2.05;1.17;;;16.20;91.60;;;;;;5422409;26;20358;-83
2024/04/14 06:40:07;;;;;;;1.80;1.20;;;16.20;91.60;;;;;;5446276;26;20029;-81
2024/04/14 06:42:33;;;;;;;2.08;1.23;;;16.20;91.50;;;;;;5452173;26;19998;-83
2024/04/14 06:44:59;;;;;;;2.20;1.20;;;16.20;91.50;;;;;;5451970;26;20001;-84
2024/04/14 06:47:24;;;;;;;2.83;1.20;;;16.20;91.50;;;;;;5426784;26;20905;-82
2024/04/14 06:49:50;;;;;;;1.77;1.10;;;16.30;91.50;;;;;;5415452;26;20002;-84
2024/04/14 06:52:15;;;;;;;2.38;1.15;;;16.20;91.50;;;;;;5385175;26;20467;-85
2024/04/14 06:54:41;;;;;;;2.15;1.10;;;16.30;91.50;;;;;;5415918;26;19995;-83
2024/04/14 06:57:06;;;;;;;1.75;1.08;;;16.30;91.50;;;;;;5416549;26;20028;-83
2024/04/14 06:59:34;;;;;;;2.00;1.02;;;16.30;91.50;;;;;;5385299;26;20010;-83
2024/04/14 07:01:59;;;;;;;2.90;1.10;;;16.30;91.50;;;;;;5416497;26;20440;-84
2024/04/14 07:04:25;;;;;;;2.08;1.20;;;16.30;91.50;;;;;;5416344;26;19999;-83
2024/04/14 07:06:51;;;;;;;2.35;1.13;;;16.30;91.50;;;;;;5385041;26;20027;-83
2024/04/14 07:09:16;;;;;;;3.17;1.30;;;16.30;91.40;;;;;;5416203;26;20004;-84
2024/04/14 07:11:42;;;;;;;1.98;1.13;;;16.20;91.40;;;;;;5415504;26;20036;-83
2024/04/14 07:14:07;;;;;;;1.65;1.00;;;16.30;91.40;;;;;;5384994;26;19995;-84
2024/04/14 07:16:33;;;;;;;2.03;1.00;;;16.30;91.40;;;;;;5420661;26;20312;-83
2024/04/14 07:18:58;;;;;;;1.88;1.17;;;16.30;91.40;;;;;;5451926;26;20009;-84
2024/04/14 07:21:24;;;;;;;2.25;1.08;;;16.30;91.30;;;;;;5420042;26;20006;-81
2024/04/14 07:23:50;;;;;;;2.08;1.25;;;16.40;91.40;;;;;;5419529;26;19999;-81
2024/04/14 07:26:15;;;;;;;2.83;1.40;;;16.30;91.30;;;;;;5419972;26;20014;-83
2024/04/14 07:28:41;;;;;;;1.38;1.00;;;16.40;91.30;;;;;;5450448;26;20420;-81
2024/04/14 07:31:06;;;;;;;1.75;1.00;;;16.40;91.30;;;;;;5424299;26;20037;-82
2024/04/14 07:33:32;;;;;;;2.15;1.10;;;16.40;91.20;;;;;;5415390;26;20357;-80
2024/04/14 07:35:58;;;;;;;2.20;1.30;;;16.40;91.20;;;;;;5383815;26;20010;-80
2024/04/14 07:38:23;;;;;;;1.65;1.00;;;16.40;91.20;;;;;;5384639;26;20394;-82
2024/04/14 07:40:49;;;;;;;1.90;1.17;;;16.40;91.20;;;;;;5385365;26;20000;-82
2024/04/14 07:43:14;;;;;;;3.25;1.23;;;16.40;91.20;;;;;;5415861;26;19996;-82
2024/04/14 07:45:40;;;;;;;2.45;1.13;;;16.40;91.20;;;;;;5385051;26;20015;-84
2024/04/14 07:48:06;;;;;;;2.30;1.00;;;16.40;91.20;;;;;;5384439;26;20004;-84
2024/04/14 07:50:31;;;;;;;1.58;1.02;;;16.40;91.20;;;;;;5384508;26;19996;-82
2024/04/14 07:52:57;;;;;;;2.63;1.00;;;16.40;91.20;;;;;;5384480;26;20334;-82
2024/04/14 07:55:22;;;;;;;1.75;1.05;;;16.50;91.20;;;;;;5384575;26;20007;-81
2024/04/14 07:57:48;;;;;;;2.28;1.00;;;16.40;91.20;;;;;;5416357;26;20003;-83
2024/04/14 08:00:13;;;;;;;1.88;0.98;;;16.50;91.20;;;;;;5416519;26;20003;-81
2024/04/14 08:02:41;;;;;;;1.83;1.13;;;16.50;91.20;;;;;;5385493;26;20003;-81
2024/04/14 08:05:07;;;;;;;2.67;1.33;;;16.50;91.20;;;;;;5417610;26;20005;-82
2024/04/14 08:07:33;;;;;;;1.55;1.00;;;16.40;91.10;;;;;;5407459;26;20003;-81
2024/04/14 08:09:58;;;;;;;2.63;1.15;;;16.50;91.10;;;;;;5420454;26;19999;-80
2024/04/14 08:12:25;;;;;;;2.30;1.20;;;16.50;91.10;;;;;;5419685;26;20006;-82
2024/04/14 08:14:50;;;;;;;1.73;1.00;;;16.60;91.10;;;;;;5449851;26;19991;-80
2024/04/14 08:17:16;;;;;;;1.95;0.98;;;16.60;91.00;;;;;;5417739;26;20045;-81
2024/04/14 08:19:41;;;;;;;2.03;1.00;;;16.50;91.00;;;;;;5416947;26;19994;-81
2024/04/14 08:22:07;;;;;;;1.65;1.00;;;16.50;90.90;;;;;;5417015;26;20496;-81
2024/04/14 08:24:32;;;;;;;1.35;0.85;;;16.60;91.00;;;;;;5448722;26;19999;-80
2024/04/14 08:26:58;;;;;;;1.63;0.93;;;16.60;91.00;;;;;;5417689;26;20003;-81
2024/04/14 08:29:25;;;;;;;1.55;1.00;;;16.60;91.00;;;;;;5449136;26;20088;-80
2024/04/14 08:31:51;;;;;;;2.90;1.10;;;16.50;91.00;;;;;;5417582;26;19998;-81
2024/04/14 08:34:17;;;;;;;3.40;1.00;;;16.60;91.00;;;;;;5449092;26;19999;-81
2024/04/14 08:36:43;;;;;;;2.80;1.23;;;16.60;90.90;;;;;;5417435;26;20002;-82
2024/04/14 08:39:09;;;;;;;2.33;0.80;;;16.60;90.90;;;;;;5416902;26;20454;-81
2024/04/14 08:41:39;;;;;;;2.17;1.00;;;16.60;90.90;;;;;;5448372;26;19995;-82
2024/04/14 08:44:05;;;;;;;2.40;1.00;;;16.60;90.90;;;;;;5416908;26;20001;-82
2024/04/14 08:46:33;;;;;;;2.90;1.20;;;16.70;90.90;;;;;;5448255;26;20071;-82
2024/04/14 08:48:59;;;;;;;3.42;1.27;;;16.70;90.80;;;;;;5448103;26;20006;-80
2024/04/14 08:51:26;;;;;;;2.75;1.20;;;16.70;90.80;;;;;;5448087;26;20006;-82
2024/04/14 08:53:55;;;;;;;2.45;1.15;;;16.70;90.80;;;;;;5417030;26;20040;-81
2024/04/14 08:56:23;;;;;;;1.98;1.05;;;16.70;91.00;;;;;;5449016;26;20007;-81
2024/04/14 08:58:56;;;;;;;1.42;0.88;;;16.80;90.80;;;;;;5417049;26;20131;-82
2024/04/14 09:01:22;;;;;;;2.25;1.00;;;16.80;90.70;;;;;;5416798;26;19995;-82
2024/04/14 09:03:48;;;;;;;2.42;1.00;;;16.80;90.70;;;;;;5448812;26;19999;-82
2024/04/14 09:06:17;;;;;;;2.10;0.90;;;16.90;90.70;;;;;;5448223;26;20335;-82
2024/04/14 09:08:42;;;;;;;2.35;1.10;;;16.90;90.70;;;;;;5448393;26;20019;-82
2024/04/14 09:11:08;;;;;;;1.58;0.90;;;16.90;90.60;;;;;;5447673;26;20048;-82
2024/04/14 09:13:34;;;;;;;2.28;1.00;;;16.90;90.60;;;;;;5416715;26;20006;-81
2024/04/14 09:15:59;;;;;;;3.22;0.88;;;16.80;90.50;;;;;;5416732;26;20063;-81
2024/04/14 09:18:25;;;;;;;1.80;1.00;;;16.90;90.60;;;;;;5447908;26;20010;-81
2024/04/14 09:20:51;;;;;;;2.97;1.00;;;16.90;90.60;;;;;;5447935;26;20010;-82
2024/04/14 09:23:16;;;;;;;2.38;1.00;;;16.80;90.50;;;;;;5447101;26;20790;-81
2024/04/14 09:25:43;;;;;;;2.45;1.17;;;16.90;90.60;;;;;;5448116;26;19998;-81
2024/04/14 09:28:11;;;;;;;2.10;0.93;;;16.90;90.60;;;;;;5416331;26;20006;-82
2024/04/14 09:30:38;;;;;;;2.33;1.10;;;16.90;90.50;;;;;;5447655;26;19995;-81
2024/04/14 09:33:04;;;;;;;2.75;1.00;;;16.90;90.50;;;;;;5416257;26;20005;-82
2024/04/14 09:35:30;;;;;;;2.85;1.00;;;16.90;90.50;;;;;;5448050;26;20462;-81
2024/04/14 09:37:56;;;;;;;2.05;0.95;;;17.00;90.50;;;;;;5447730;26;19995;-82
2024/04/14 09:40:23;;;;;;;1.70;0.90;;;17.00;90.50;;;;;;5447615;26;19995;-82
2024/04/14 09:42:50;;;;;;;1.98;0.98;;;17.00;90.40;;;;;;5416043;26;20005;-81
2024/04/14 09:45:16;;;;;;;2.35;0.98;;;17.00;90.40;;;;;;5447206;26;19994;-82
2024/04/14 09:47:43;;;;;;;2.47;0.98;;;17.00;90.40;;;;;;5447296;26;20002;-80
2024/04/14 09:50:09;;;;;;;2.33;0.90;;;17.10;90.30;;;;;;5415720;26;19991;-81
2024/04/14 09:52:36;;;;;;;2.97;0.93;;;17.10;90.30;;;;;;5418659;26;20001;-81
2024/04/14 09:55:04;;;;;;;2.42;0.98;;;17.10;90.30;;;;;;5451277;26;20063;-80
2024/04/14 09:57:30;;;;;;;2.10;0.88;;;17.10;90.30;;;;;;5451620;26;19995;-81
2024/04/14 09:59:56;;;;;;;4.00;1.00;;;17.10;90.30;;;;;;5450967;26;20036;-81
2024/04/14 10:02:32;;;;;;;2.95;1.17;;;17.10;90.20;;;;;;5451648;26;20006;-81
2024/04/14 10:04:59;;;;;;;2.35;1.10;;;17.10;90.20;;;;;;5450848;26;20023;-81
2024/04/14 10:07:25;;;;;;;2.03;0.93;;;17.10;90.20;;;;;;5450437;26;19995;-81
2024/04/14 10:09:51;;;;;;;3.17;1.00;;;17.10;90.30;;;;;;5450395;26;19994;-80
2024/04/14 10:12:20;;;;;;;1.73;0.80;;;17.10;90.40;;;;;;5450549;26;20010;-79
2024/04/14 10:14:47;;;;;;;1.73;0.75;;;17.00;90.40;;;;;;5450337;26;20393;-78
2024/04/14 10:17:13;;;;;;;2.13;1.00;;;17.00;90.40;;;;;;5418478;26;20006;-80
2024/04/14 10:19:38;;;;;;;2.42;1.10;;;17.00;90.40;;;;;;5450340;26;19994;-79
2024/04/14 10:22:08;;;;;;;2.38;1.02;;;17.00;90.50;;;;;;5450194;26;20006;-79
2024/04/14 10:24:47;;;;;;;2.72;0.95;;;17.00;90.50;;;;;;5451138;26;20044;-81
2024/04/14 10:27:12;;;;;;;2.33;0.90;;;16.90;90.50;;;;;;5450846;26;19995;-81
2024/04/14 10:29:39;;;;;;;2.17;0.93;;;16.90;90.50;;;;;;5418114;26;19995;-78
2024/04/14 10:32:05;;;;;;;3.13;1.10;;;17.00;90.50;;;;;;5418038;26;20067;-76
2024/04/14 10:34:34;;;;;;;2.03;0.82;;;17.00;90.50;;;;;;5449019;26;20408;-76
2024/04/14 10:36:59;;;;;;;1.80;0.80;;;16.90;90.50;;;;;;5448926;26;19999;-77
2024/04/14 10:39:25;;;;;;;1.95;0.80;;;16.90;90.50;;;;;;5417297;26;20002;-76
2024/04/14 10:41:51;;;;;;;2.75;0.90;;;17.00;90.50;;;;;;5448947;26;20002;-76
2024/04/14 10:44:23;;;;;;;1.88;0.90;;;17.00;90.50;;;;;;5448979;26;20001;-76
2024/04/14 10:46:49;;;;;;;3.88;1.00;;;17.00;90.40;;;;;;5449075;26;20002;-77
2024/04/14 10:49:15;;;;;;;2.85;0.90;;;16.90;90.30;;;;;;5448668;26;20341;-77
2024/04/14 10:51:41;;;;;;;1.73;0.88;;;16.90;90.20;;;;;;5417159;26;20067;-76
2024/04/14 10:54:07;;;;;;;1.80;0.90;;;17.00;90.20;;;;;;5417335;26;20006;-76
2024/04/14 10:56:32;;;;;;;3.70;1.10;;;17.00;90.20;;;;;;5449394;26;19999;-80
2024/04/14 10:58:58;;;;;;;1.65;0.90;;;17.00;90.20;;;;;;5448974;26;19995;-79
2024/04/14 11:01:24;;;;;;;2.63;1.00;;;17.10;90.20;;;;;;5417527;26;20343;-79
2024/04/14 11:03:50;;;;;;;2.55;0.90;;;17.00;90.20;;;;;;5449424;26;20059;-79
2024/04/14 11:06:16;;;;;;;3.35;0.90;;;16.90;90.10;;;;;;5417727;26;20049;-78
2024/04/14 11:08:42;;;;;;;2.25;0.95;;;17.00;90.20;;;;;;5449956;26;20002;-81
2024/04/14 11:11:09;;;;;;;2.55;1.00;;;17.00;90.10;;;;;;5417661;26;20019;-79
2024/04/14 11:13:35;;;;;;;4.45;1.13;;;17.10;90.00;;;;;;5450167;26;20007;-80
2024/04/14 11:16:02;;;;;;;2.28;0.90;;;17.00;90.00;;;;;;5417899;26;20096;-80
2024/04/14 11:18:31;;;;;;;3.33;0.95;;;17.10;90.00;;;;;;5418709;26;19995;-80
2024/04/14 11:20:57;;;;;;;2.97;0.73;;;17.00;90.00;;;;;;5449590;26;20514;-85
2024/04/14 11:23:23;;;;;;;3.60;0.90;;;17.00;90.00;;;;;;5417351;26;19994;-79
2024/04/14 11:25:52;;;;;;;3.95;1.10;;;16.90;89.80;;;;;;5449383;26;20014;-80
2024/04/14 11:28:20;;;;;;;3.72;1.10;;;17.00;89.80;;;;;;5417765;26;20459;-81
2024/04/14 11:30:46;;;;;;;3.15;1.00;;;17.00;89.80;;;;;;5449322;26;20038;-79
2024/04/14 11:33:12;;;;;;;5.53;1.00;;;16.90;89.80;;;;;;5449299;26;20067;-79
2024/04/14 11:35:38;;;;;;;2.75;1.05;;;16.90;89.80;;;;;;5449236;26;20010;-80
2024/04/14 11:38:05;;;;;;;4.38;1.08;;;17.00;89.90;;;;;;5449018;26;19995;-79
2024/04/14 11:40:31;;;;;;;6.05;1.10;;;17.00;89.80;;;;;;5417532;26;19995;-79
2024/04/14 11:42:56;;;;;;;4.18;1.10;;;16.90;89.80;;;;;;5412096;26;20471;-79
2024/04/14 11:45:22;;;;;;;4.47;1.15;;;16.90;89.80;;;;;;5449417;26;19995;-79
2024/04/14 11:47:48;;;;;;;3.97;1.40;;;16.80;89.70;;;;;;5449074;26;20006;-80
2024/04/14 11:50:13;;;;;;;3.10;0.93;;;16.80;89.70;;;;;;5417201;26;20313;-79
2024/04/14 11:52:39;;;;;;;3.75;1.20;;;16.90;89.70;;;;;;5448990;26;20007;-79
2024/04/14 11:55:09;;;;;;;3.25;1.00;;;16.80;89.60;;;;;;5449672;26;19991;-80
2024/04/14 11:57:35;;;;;;;3.60;1.00;;;16.90;89.40;;;;;;5448973;26;20005;-79
2024/04/14 12:00:02;;;;;;;3.72;1.00;;;17.00;89.30;;;;;;5449354;26;20027;-79
2024/04/14 12:02:27;;;;;;;4.35;1.10;;;17.00;89.10;;;;;;5449072;26;20056;-80
2024/04/14 12:04:53;;;;;;;4.05;1.08;;;17.00;88.90;;;;;;5416755;26;20603;-79
2024/04/14 12:07:20;;;;;;;3.88;1.05;;;17.00;88.80;;;;;;5416389;26;20075;-78
2024/04/14 12:09:46;;;;;;;3.58;1.10;;;17.00;89.30;;;;;;5416440;26;19994;-79
2024/04/14 12:12:13;;;;;;;5.38;1.08;;;17.00;88.70;;;;;;5448179;26;20923;-80
2024/04/14 12:14:39;;;;;;;3.13;0.98;;;17.00;88.90;;;;;;5416145;26;19999;-78
2024/04/14 12:17:04;;;;;;;3.50;1.10;;;17.10;88.90;;;;;;5449015;26;20067;-78
2024/04/14 12:19:30;;;;;;;2.72;0.90;;;17.00;89.00;;;;;;5448735;26;20006;-79
2024/04/14 12:21:56;;;;;;;2.42;1.05;;;17.00;89.10;;;;;;5448739;26;20005;-78
2024/04/14 12:24:21;;;;;;;4.53;1.15;;;17.00;89.20;;;;;;5448630;26;20067;-78
2024/04/14 12:26:47;;;;;;;6.53;1.42;;;16.90;89.20;;;;;;5448779;26;20003;-78
2024/04/14 12:29:13;;;;;;;4.60;1.15;;;16.90;89.30;;;;;;5416938;26;20046;-80
2024/04/14 12:31:38;;;;;;;3.30;1.05;;;16.90;89.30;;;;;;5416425;26;20504;-78
2024/04/14 12:34:04;;;;;;;6.25;1.40;;;16.90;89.30;;;;;;5417122;26;19998;-81
2024/04/14 12:36:29;;;;;;;4.25;1.00;;;16.90;89.40;;;;;;5416912;26;19999;-78
2024/04/14 12:38:55;;;;;;;5.30;1.17;;;17.00;89.50;;;;;;5448883;26;20527;-79
2024/04/14 12:41:21;;;;;;;6.75;1.10;;;16.90;89.50;;;;;;5416799;26;19999;-79